Time;durP1;ratioP1;P1;durP2;ratioP2;P2;SDS_P1;SDS_P2;PMS_P1;PMS_P2;Temp;Humidity;BMP_temperature;BMP_pressure;BME280_temperature;BME280_humidity;BME280_pressure;Samples;Min_cycle;Max_cycle;Signal;HPM_P1;HPM_P2
2022/12/11 00:00:24;;;;;;;71.67;21.60;;;0.20;99.90;;;;;;4994076;28;20032;-54
2022/12/11 00:02:50;;;;;;;73.57;22.13;;;0.20;99.90;;;;;;4993942;28;20435;-53
2022/12/11 00:05:15;;;;;;;85.37;23.10;;;0.20;99.90;;;;;;4994067;28;20061;-49
2022/12/11 00:07:41;;;;;;;77.60;23.27;;;0.20;99.90;;;;;;4993797;28;20038;-49
2022/12/11 00:10:08;;;;;;;83.23;24.20;;;0.30;99.90;;;;;;4993772;28;20550;-51
2022/12/11 00:12:33;;;;;;;81.13;22.90;;;0.30;99.90;;;;;;4993673;28;20034;-52
2022/12/11 00:14:59;;;;;;;76.90;23.80;;;0.30;99.90;;;;;;4994148;28;20125;-52
2022/12/11 00:17:25;;;;;;;82.03;25.73;;;0.30;99.90;;;;;;4993396;28;20081;-51
2022/12/11 00:19:50;;;;;;;89.60;26.57;;;0.30;99.90;;;;;;4993153;28;20065;-53
2022/12/11 00:22:16;;;;;;;92.40;27.90;;;0.30;99.90;;;;;;4992592;28;20077;-53
2022/12/11 00:24:42;;;;;;;90.67;26.70;;;0.30;99.90;;;;;;4993387;28;20053;-52
2022/12/11 00:27:08;;;;;;;94.60;25.67;;;0.30;99.90;;;;;;4993082;28;20068;-53
2022/12/11 00:29:33;;;;;;;82.40;24.80;;;0.30;99.90;;;;;;4991777;28;20031;-53
2022/12/11 00:31:59;;;;;;;86.50;25.07;;;0.30;99.90;;;;;;4993206;28;20505;-53
2022/12/11 00:34:25;;;;;;;92.70;25.47;;;0.30;99.90;;;;;;4993265;28;20490;-53
2022/12/11 00:36:50;;;;;;;85.47;23.20;;;0.30;99.90;;;;;;4993155;28;20034;-51
2022/12/11 00:39:16;;;;;;;86.90;25.30;;;0.40;99.90;;;;;;4993524;28;20368;-51
2022/12/11 00:41:42;;;;;;;96.73;26.97;;;0.30;99.90;;;;;;4993161;28;20022;-53
2022/12/11 00:44:08;;;;;;;80.80;23.10;;;0.30;99.90;;;;;;4993744;28;20045;-53
2022/12/11 00:46:33;;;;;;;76.70;21.10;;;0.30;99.90;;;;;;4993096;28;20057;-52
2022/12/11 00:48:59;;;;;;;68.00;20.33;;;0.30;99.90;;;;;;4991720;28;20038;-53
2022/12/11 00:51:25;;;;;;;71.73;21.27;;;0.20;99.90;;;;;;4993066;28;20030;-48
2022/12/11 00:53:51;;;;;;;64.93;19.70;;;0.30;99.90;;;;;;4993050;28;20030;-53
2022/12/11 00:56:20;;;;;;;63.43;18.93;;;0.20;99.90;;;;;;4992842;28;20041;-48
2022/12/11 00:58:47;;;;;;;62.65;19.05;;;0.30;99.90;;;;;;4993023;28;20030;-48
2022/12/11 01:01:16;;;;;;;64.90;18.70;;;0.30;99.90;;;;;;4993164;28;20042;-52
2022/12/11 01:03:42;;;;;;;60.03;18.73;;;0.20;99.90;;;;;;5017895;23;20057;-59
2022/12/11 01:06:15;;;;;;;61.47;19.73;;;0.30;99.90;;;;;;5012667;28;20053;-59
2022/12/11 01:08:41;;;;;;;67.13;20.60;;;0.20;99.90;;;;;;5011987;28;20053;-59
2022/12/11 01:11:09;;;;;;;64.43;19.27;;;0.30;99.90;;;;;;5012437;28;20049;-59
2022/12/11 01:13:36;;;;;;;59.70;19.60;;;0.30;99.90;;;;;;5012321;28;20034;-59
2022/12/11 01:16:09;;;;;;;67.80;20.63;;;0.30;99.90;;;;;;5012474;28;20046;-59
2022/12/11 01:18:36;;;;;;;60.53;19.53;;;0.30;99.90;;;;;;5011911;28;20438;-59
2022/12/11 01:21:10;;;;;;;57.60;19.00;;;0.30;99.90;;;;;;5012187;28;20038;-59
2022/12/11 01:23:37;;;;;;;60.73;20.43;;;0.30;99.90;;;;;;5012048;28;20044;-59
2022/12/11 01:26:11;;;;;;;61.83;21.30;;;0.30;99.90;;;;;;5012112;28;20033;-59
2022/12/11 01:28:37;;;;;;;55.63;18.50;;;0.30;99.90;;;;;;5011453;28;20030;-59
2022/12/11 01:31:07;;;;;;;55.30;18.13;;;0.30;99.90;;;;;;5012098;28;20386;-59
2022/12/11 01:33:33;;;;;;;54.07;19.00;;;0.40;99.90;;;;;;5011804;28;20029;-59
2022/12/11 01:35:59;;;;;;;53.50;18.73;;;0.30;99.90;;;;;;5011688;28;20099;-59
2022/12/11 01:38:24;;;;;;;48.37;17.87;;;0.30;99.90;;;;;;5011826;28;20033;-59
2022/12/11 01:40:51;;;;;;;58.87;19.30;;;0.30;99.90;;;;;;5011607;28;20036;-59
2022/12/11 01:43:17;;;;;;;54.60;19.57;;;0.30;99.90;;;;;;5011708;28;20036;-59
2022/12/11 01:45:46;;;;;;;54.87;18.43;;;0.30;99.90;;;;;;5011718;28;20397;-59
2022/12/11 01:48:25;;;;;;;55.63;18.27;;;0.30;99.90;;;;;;5011517;28;20053;-59
2022/12/11 01:51:03;;;;;;;51.25;18.52;;;0.30;99.90;;;;;;5011646;28;20037;-59
2022/12/11 01:53:33;;;;;;;54.30;19.03;;;0.30;99.90;;;;;;5011838;28;20077;-59
2022/12/11 01:56:01;;;;;;;59.17;18.17;;;0.30;99.90;;;;;;5011629;28;20440;-59
2022/12/11 01:58:32;;;;;;;63.50;20.67;;;0.30;99.90;;;;;;5011301;28;20034;-59
2022/12/11 02:01:00;;;;;;;58.97;20.10;;;0.30;99.90;;;;;;5011367;28;20040;-59
2022/12/11 02:03:26;;;;;;;62.97;19.83;;;0.30;99.90;;;;;;5011384;28;20402;-59
2022/12/11 02:05:52;;;;;;;60.60;20.33;;;0.30;99.90;;;;;;5011402;28;20041;-59
2022/12/11 02:08:18;;;;;;;56.57;19.40;;;0.30;99.90;;;;;;5011239;28;20084;-59
2022/12/11 02:11:11;;;;;;;61.77;19.27;;;0.30;99.90;;;;;;5011034;28;20545;-59
2022/12/11 02:13:41;;;;;;;52.57;17.07;;;0.40;99.90;;;;;;5011033;28;20505;-59
2022/12/11 02:16:28;;;;;;;54.43;17.03;;;0.30;99.90;;;;;;5011173;28;20045;-59
2022/12/11 02:19:04;;;;;;;45.90;16.20;;;0.30;99.90;;;;;;5011110;28;20436;-59
2022/12/11 02:21:51;;;;;;;45.77;15.90;;;0.40;99.90;;;;;;5010130;28;20501;-59
2022/12/11 02:24:34;;;;;;;47.17;15.30;;;0.30;99.90;;;;;;5011004;28;20088;-59
2022/12/11 02:27:12;;;;;;;48.67;15.70;;;0.30;99.90;;;;;;5010963;28;20434;-59
2022/12/11 02:29:55;;;;;;;53.10;15.80;;;0.30;99.90;;;;;;5010953;28;20042;-59
2022/12/11 02:32:31;;;;;;;49.13;17.00;;;0.30;99.90;;;;;;5010949;28;20049;-59
2022/12/11 02:35:09;;;;;;;46.43;17.30;;;0.40;99.90;;;;;;5011173;28;20080;-59
2022/12/11 02:37:37;;;;;;;55.17;17.70;;;0.40;99.90;;;;;;5010846;28;20570;-59
2022/12/11 02:40:07;;;;;;;54.00;17.50;;;0.40;99.90;;;;;;5010825;28;20065;-59
2022/12/11 02:42:34;;;;;;;;;;;0.40;99.90;;;;;;5011333;28;20455;-59
2022/12/11 02:45:02;;;;;;;57.17;18.03;;;0.40;99.90;;;;;;5011166;28;20000;-59
2022/12/11 02:47:30;;;;;;;61.33;21.03;;;0.40;99.90;;;;;;5014402;28;20121;-59
2022/12/11 02:49:58;;;;;;;59.00;18.48;;;0.40;99.90;;;;;;5014743;28;20036;-59
2022/12/11 02:52:26;;;;;;;61.03;19.33;;;0.40;99.90;;;;;;5014893;28;20030;-59
2022/12/11 02:54:55;;;;;;;63.57;21.27;;;0.40;99.90;;;;;;5014772;28;20077;-60
2022/12/11 02:57:31;;;;;;;64.05;20.77;;;0.40;99.90;;;;;;5014630;28;20396;-59
2022/12/11 02:59:57;;;;;;;63.17;20.47;;;0.40;99.90;;;;;;5014557;28;20129;-59
2022/12/11 03:02:23;;;;;;;58.97;20.17;;;0.40;99.90;;;;;;5014485;28;20486;-59
2022/12/11 03:04:49;;;;;;;69.07;21.40;;;0.40;99.90;;;;;;5014806;28;20052;-59
2022/12/11 03:07:22;;;;;;;70.20;20.73;;;0.40;99.90;;;;;;5014454;28;20026;-59
2022/12/11 03:09:48;;;;;;;68.53;21.47;;;0.40;99.90;;;;;;5014419;28;20056;-60
2022/12/11 03:12:20;;;;;;;69.23;21.13;;;0.50;99.90;;;;;;5014527;28;20030;-59
2022/12/11 03:14:47;;;;;;;67.00;22.17;;;0.50;99.90;;;;;;5014568;28;20037;-59
2022/12/11 03:17:22;;;;;;;68.93;21.30;;;0.50;99.90;;;;;;5014195;28;20137;-59
2022/12/11 03:19:51;;;;;;;64.93;20.43;;;0.50;99.90;;;;;;5014092;28;20049;-59
2022/12/11 03:22:30;;;;;;;73.07;22.38;;;0.50;99.90;;;;;;5014157;28;20101;-58
2022/12/11 03:25:10;;;;;;;68.67;21.77;;;0.50;99.90;;;;;;5014328;28;20041;-59
2022/12/11 03:27:46;;;;;;;73.70;21.27;;;0.50;99.90;;;;;;5014074;28;20049;-58
2022/12/11 03:30:16;;;;;;;72.40;21.47;;;0.60;99.90;;;;;;5013838;28;20072;-59
2022/12/11 03:33:02;;;;;;;65.03;20.90;;;0.60;99.90;;;;;;5014200;28;20034;-59
2022/12/11 03:35:31;;;;;;;70.37;21.37;;;0.60;99.90;;;;;;5013960;28;20081;-59
2022/12/11 03:38:02;;;;;;;75.55;22.35;;;0.50;99.90;;;;;;5013597;28;20030;-63
2022/12/11 03:40:32;;;;;;;66.90;21.63;;;0.60;99.90;;;;;;5013505;28;20483;-59
2022/12/11 03:42:58;;;;;;;63.85;20.45;;;0.60;99.90;;;;;;5013593;28;20036;-59
2022/12/11 03:45:26;;;;;;;69.70;21.27;;;0.60;99.90;;;;;;5013807;28;20049;-59
2022/12/11 03:47:53;;;;;;;62.70;20.53;;;0.60;99.90;;;;;;5013379;28;20069;-59
2022/12/11 03:50:22;;;;;;;58.57;20.20;;;0.60;99.90;;;;;;5013372;28;20053;-58
2022/12/11 03:52:49;;;;;;;68.53;21.13;;;0.70;99.90;;;;;;5013510;28;20037;-59
2022/12/11 03:55:17;;;;;;;62.80;20.73;;;0.70;99.90;;;;;;5013528;28;20033;-59
2022/12/11 03:57:43;;;;;;;64.30;21.63;;;0.70;99.90;;;;;;5010771;28;20048;-59
2022/12/11 04:00:14;;;;;;;72.63;23.50;;;0.60;99.90;;;;;;5013142;28;20069;-59
2022/12/11 04:02:40;;;;;;;67.17;21.50;;;0.70;99.90;;;;;;5013205;28;20038;-59
2022/12/11 04:05:07;;;;;;;69.33;23.20;;;0.70;99.90;;;;;;5013270;28;20120;-58
2022/12/11 04:07:32;;;;;;;72.53;23.43;;;0.60;99.90;;;;;;5012930;28;20117;-59
2022/12/11 04:09:58;;;;;;;67.40;21.17;;;0.60;99.90;;;;;;5012798;28;20121;-59
2022/12/11 04:12:24;;;;;;;71.33;23.13;;;0.60;99.90;;;;;;5013107;28;20030;-59
2022/12/11 04:15:02;;;;;;;64.50;22.17;;;0.60;99.90;;;;;;5012986;28;20084;-59
2022/12/11 04:25:49;;;;;;;71.73;23.07;;;0.60;99.90;;;;;;5012926;28;20044;-59
2022/12/11 04:28:15;;;;;;;65.73;21.57;;;0.60;99.90;;;;;;5012702;28;20120;-59
2022/12/11 04:30:46;;;;;;;63.07;20.67;;;0.60;99.90;;;;;;5012681;28;20112;-59
2022/12/11 04:33:12;;;;;;;67.73;22.63;;;0.60;99.90;;;;;;5012660;28;20077;-59
2022/12/11 04:35:37;;;;;;;69.30;21.60;;;0.60;99.90;;;;;;5012909;28;20057;-58
2022/12/11 04:38:03;;;;;;;60.23;21.60;;;0.70;99.90;;;;;;5012516;28;20102;-59
2022/12/11 04:40:29;;;;;;;60.00;21.63;;;0.70;99.90;;;;;;5012723;28;20428;-59
2022/12/11 04:42:54;;;;;;;62.30;21.67;;;0.70;99.90;;;;;;5012970;28;20053;-59
2022/12/11 04:45:20;;;;;;;58.43;20.60;;;0.70;99.90;;;;;;5012696;28;20171;-59
2022/12/11 04:47:46;;;;;;;66.07;21.80;;;0.70;99.90;;;;;;5012525;28;20438;-58
2022/12/11 04:50:13;;;;;;;65.90;22.03;;;0.70;99.90;;;;;;5012674;28;20045;-59
2022/12/11 04:52:39;;;;;;;65.57;22.03;;;0.70;99.90;;;;;;5012758;28;20049;-59
2022/12/11 04:55:07;;;;;;;66.80;22.23;;;0.70;99.90;;;;;;5012447;28;20478;-59
2022/12/11 04:57:33;;;;;;;71.27;22.50;;;0.70;99.90;;;;;;5012340;28;20030;-58
2022/12/11 04:59:58;;;;;;;61.57;22.20;;;0.70;99.90;;;;;;5012254;28;20422;-59
2022/12/11 05:02:25;;;;;;;66.20;22.47;;;0.60;99.90;;;;;;5012244;28;20026;-59
2022/12/11 05:04:51;;;;;;;64.90;22.27;;;0.70;99.90;;;;;;5012566;28;20040;-59
2022/12/11 05:07:16;;;;;;;62.13;22.57;;;0.70;99.90;;;;;;5012375;28;20034;-59
2022/12/11 05:09:42;;;;;;;67.37;23.70;;;0.70;99.90;;;;;;5011897;28;20386;-59
2022/12/11 05:12:08;;;;;;;65.33;22.40;;;0.70;99.90;;;;;;5012639;28;20073;-59
2022/12/11 05:14:34;;;;;;;62.83;22.83;;;0.70;99.90;;;;;;5012161;28;20040;-59
2022/12/11 05:16:59;;;;;;;67.43;22.50;;;0.70;99.90;;;;;;5011944;28;20060;-59
2022/12/11 05:19:25;;;;;;;70.27;23.17;;;0.70;99.90;;;;;;5011926;28;20061;-59
2022/12/11 05:21:51;;;;;;;64.03;22.63;;;0.60;99.90;;;;;;5012102;28;20120;-59
2022/12/11 05:24:17;;;;;;;72.10;24.10;;;0.60;99.90;;;;;;5011973;28;20120;-59
2022/12/11 05:26:43;;;;;;;68.23;23.03;;;0.60;99.90;;;;;;5011764;28;20129;-59
2022/12/11 05:29:09;;;;;;;63.63;22.27;;;0.70;99.90;;;;;;5011551;28;20065;-59
2022/12/11 05:31:34;;;;;;;71.03;24.10;;;0.70;99.90;;;;;;5011802;28;20030;-59
2022/12/11 05:34:00;;;;;;;72.13;24.13;;;0.70;99.90;;;;;;5011748;28;20076;-59
2022/12/11 05:36:28;;;;;;;69.43;23.63;;;0.70;99.90;;;;;;5011670;28;20341;-58
2022/12/11 05:38:56;;;;;;;65.87;23.17;;;0.70;99.90;;;;;;5011501;28;20144;-59
2022/12/11 05:41:23;;;;;;;69.67;23.47;;;0.70;99.90;;;;;;5010291;28;20034;-59
2022/12/11 05:43:50;;;;;;;64.77;22.13;;;0.70;99.90;;;;;;5011453;28;20091;-59
2022/12/11 05:46:20;;;;;;;69.17;22.53;;;0.60;99.90;;;;;;5011599;28;20030;-59
2022/12/11 05:48:48;;;;;;;60.93;21.37;;;0.60;99.90;;;;;;5011399;28;20107;-59
2022/12/11 05:51:15;;;;;;;63.83;22.17;;;0.60;99.90;;;;;;5011544;28;20116;-59
2022/12/11 05:53:42;;;;;;;59.40;21.63;;;0.60;99.90;;;;;;5011240;28;20029;-59
2022/12/11 05:56:14;;;;;;;56.23;21.63;;;0.60;99.90;;;;;;5011293;28;20026;-59
2022/12/11 05:58:41;;;;;;;60.47;21.43;;;0.60;99.90;;;;;;5011267;28;20041;-59
2022/12/11 06:01:12;;;;;;;63.10;22.07;;;0.60;99.90;;;;;;5011406;28;20037;-59
2022/12/11 06:03:38;;;;;;;59.77;21.97;;;0.60;99.90;;;;;;5011359;28;20045;-59
2022/12/11 06:06:04;;;;;;;60.07;22.27;;;0.70;99.90;;;;;;5011475;28;20108;-59
2022/12/11 06:08:30;;;;;;;60.47;22.03;;;0.70;99.90;;;;;;5010916;28;20038;-59
2022/12/11 06:10:56;;;;;;;62.33;22.80;;;0.70;99.90;;;;;;5011070;28;20034;-59
2022/12/11 06:13:22;;;;;;;63.13;21.83;;;0.60;99.90;;;;;;5010998;28;20033;-59
2022/12/11 06:15:48;;;;;;;66.17;22.73;;;0.70;99.90;;;;;;5011085;28;20030;-59
2022/12/11 06:18:13;;;;;;;64.73;22.73;;;0.70;99.90;;;;;;5010990;28;20030;-58
2022/12/11 06:20:39;;;;;;;61.80;22.93;;;0.70;99.90;;;;;;5010415;28;20033;-59
2022/12/11 06:23:05;;;;;;;64.67;23.20;;;0.70;99.90;;;;;;5010881;28;20042;-59
2022/12/11 06:25:31;;;;;;;67.40;24.07;;;0.70;99.90;;;;;;5010882;28;20121;-61
2022/12/11 06:27:57;;;;;;;61.50;22.47;;;0.80;99.90;;;;;;5010894;28;20109;-59
2022/12/11 06:30:23;;;;;;;58.40;21.57;;;0.80;99.90;;;;;;5010654;28;20437;-59
2022/12/11 06:32:48;;;;;;;56.63;21.27;;;0.70;99.90;;;;;;5010877;28;20025;-58
2022/12/11 06:35:14;;;;;;;61.90;22.03;;;0.70;99.90;;;;;;5010866;28;20041;-59
2022/12/11 06:37:40;;;;;;;63.47;21.97;;;0.70;99.90;;;;;;5010888;28;20493;-60
2022/12/11 06:40:08;;;;;;;56.03;20.77;;;0.70;99.90;;;;;;5010414;28;20034;-59
2022/12/11 06:42:34;;;;;;;60.50;21.63;;;0.70;99.90;;;;;;5010646;28;20418;-59
2022/12/11 06:45:00;;;;;;;59.77;22.80;;;0.70;99.90;;;;;;5010923;28;20320;-59
2022/12/11 06:47:29;;;;;;;60.73;21.23;;;0.70;99.90;;;;;;5010955;28;20412;-59
2022/12/11 06:49:55;;;;;;;60.33;22.25;;;0.60;99.90;;;;;;5010602;28;20041;-59
2022/12/11 06:52:26;;;;;;;59.57;21.80;;;0.60;99.90;;;;;;5010624;28;20049;-59
2022/12/11 06:54:52;;;;;;;56.67;21.43;;;0.60;99.90;;;;;;5010534;28;20788;-59
2022/12/11 06:57:18;;;;;;;60.67;22.30;;;0.60;99.90;;;;;;5010426;28;20060;-59
2022/12/11 06:59:44;;;;;;;55.00;22.13;;;0.60;99.90;;;;;;5010637;28;20033;-59
2022/12/11 07:02:14;;;;;;;62.13;22.30;;;0.60;99.90;;;;;;5010521;28;20109;-59
2022/12/11 07:04:40;;;;;;;57.30;21.60;;;0.60;99.90;;;;;;5022184;23;20061;-52
2022/12/11 07:07:07;;;;;;;52.10;20.27;;;0.60;99.90;;;;;;5010295;28;20045;-53
2022/12/11 07:09:33;;;;;;;59.40;21.07;;;0.70;99.90;;;;;;5010344;28;20041;-52
2022/12/11 07:11:58;;;;;;;60.60;24.57;;;0.60;99.90;;;;;;5010567;28;20038;-51
2022/12/11 07:14:24;;;;;;;54.33;21.17;;;0.70;99.90;;;;;;5010418;28;20025;-54
2022/12/11 07:16:50;;;;;;;57.33;20.77;;;0.70;99.90;;;;;;5010334;28;20022;-54
2022/12/11 07:19:16;;;;;;;61.10;21.57;;;0.70;99.90;;;;;;5010301;28;20432;-54
2022/12/11 07:21:41;;;;;;;57.67;21.17;;;0.70;99.90;;;;;;5010362;28;20057;-54
2022/12/11 07:24:07;;;;;;;54.07;21.67;;;0.70;99.90;;;;;;5010580;28;20394;-51
2022/12/11 07:26:33;;;;;;;51.13;19.50;;;0.70;99.90;;;;;;5010250;28;20034;-53
2022/12/11 07:28:59;;;;;;;55.53;20.43;;;0.80;99.90;;;;;;5010311;28;20034;-53
2022/12/11 07:31:27;;;;;;;55.43;19.93;;;0.70;99.90;;;;;;5010598;28;20100;-54
2022/12/11 07:33:58;;;;;;;58.00;20.33;;;0.70;99.90;;;;;;5013918;28;20061;-50
2022/12/11 07:36:25;;;;;;;50.17;20.27;;;0.70;99.90;;;;;;5013685;28;20029;-49
2022/12/11 07:38:51;;;;;;;54.73;19.60;;;0.70;99.90;;;;;;5013699;28;20482;-49
2022/12/11 07:41:17;;;;;;;58.83;21.03;;;0.70;99.90;;;;;;5013905;28;20036;-52
2022/12/11 07:43:51;;;;;;;56.90;20.73;;;0.60;99.90;;;;;;5012708;28;20037;-49
2022/12/11 07:46:20;;;;;;;56.50;20.40;;;0.60;99.90;;;;;;5013797;28;20030;-52
2022/12/11 07:48:46;;;;;;;56.07;20.33;;;0.60;99.90;;;;;;5013543;28;20456;-49
2022/12/11 07:51:32;;;;;;;54.57;20.77;;;0.60;99.90;;;;;;5014014;28;20164;-52
2022/12/11 07:54:04;;;;;;;52.43;19.20;;;0.60;99.90;;;;;;5013951;28;20450;-51
2022/12/11 07:56:31;;;;;;;53.87;18.63;;;0.60;99.90;;;;;;5013495;28;20029;-52
2022/12/11 07:59:05;;;;;;;51.20;19.23;;;0.60;99.90;;;;;;5013481;28;20068;-54
2022/12/11 08:01:35;;;;;;;55.17;19.70;;;0.60;99.90;;;;;;5013539;28;20475;-54
2022/12/11 08:04:02;;;;;;;48.73;18.77;;;0.50;99.90;;;;;;5013280;28;20487;-53
2022/12/11 08:06:33;;;;;;;55.23;19.83;;;0.60;99.90;;;;;;5013194;28;20040;-53
2022/12/11 08:09:01;;;;;;;49.27;19.77;;;0.60;99.90;;;;;;5011981;28;20487;-53
2022/12/11 08:11:27;;;;;;;50.10;19.60;;;0.60;99.90;;;;;;5013301;28;20061;-50
2022/12/11 08:13:53;;;;;;;50.97;19.57;;;0.60;99.90;;;;;;5013086;28;20041;-50
2022/12/11 08:16:19;;;;;;;50.57;19.27;;;0.60;99.90;;;;;;5013238;28;20033;-52
2022/12/11 08:18:46;;;;;;;49.83;18.93;;;0.60;99.90;;;;;;5013314;28;20033;-53
2022/12/11 08:21:16;;;;;;;47.77;17.93;;;0.60;99.90;;;;;;5014149;28;20030;-50
2022/12/11 08:23:43;;;;;;;50.37;19.13;;;0.60;99.90;;;;;;5013557;28;20033;-50
2022/12/11 08:26:18;;;;;;;45.47;18.30;;;0.60;99.90;;;;;;5013401;28;20062;-53
2022/12/11 08:28:43;;;;;;;45.67;18.60;;;0.60;99.90;;;;;;5013478;28;20045;-53
2022/12/11 08:31:11;;;;;;;43.37;18.27;;;0.60;99.90;;;;;;5013763;28;20034;-52
2022/12/11 08:33:38;;;;;;;46.03;18.80;;;0.60;99.90;;;;;;5013428;28;20053;-54
2022/12/11 08:36:06;;;;;;;49.00;18.53;;;0.60;99.90;;;;;;5013013;28;20030;-54
2022/12/11 08:38:32;;;;;;;49.33;18.57;;;0.60;99.90;;;;;;5012305;28;20030;-56
2022/12/11 08:40:58;;;;;;;49.17;18.80;;;0.60;99.90;;;;;;5012592;28;20026;-54
2022/12/11 08:43:24;;;;;;;43.90;19.30;;;0.60;99.90;;;;;;5012019;28;20041;-54
2022/12/11 08:45:50;;;;;;;49.20;19.13;;;0.60;99.90;;;;;;5012847;28;20030;-53
2022/12/11 08:48:16;;;;;;;47.77;18.23;;;0.60;99.90;;;;;;5012417;28;20462;-55
2022/12/11 08:50:42;;;;;;;44.57;18.33;;;0.60;99.90;;;;;;5012402;28;20467;-54
2022/12/11 08:53:07;;;;;;;51.43;19.83;;;0.70;99.90;;;;;;5012458;28;20116;-54
2022/12/11 08:55:33;;;;;;;45.00;17.70;;;0.70;99.90;;;;;;5012444;28;20025;-55
2022/12/11 08:57:59;;;;;;;48.37;20.00;;;0.70;99.90;;;;;;5012289;28;20026;-54
2022/12/11 09:00:26;;;;;;;46.50;18.97;;;0.70;99.90;;;;;;5012308;28;20084;-53
2022/12/11 09:02:52;;;;;;;45.57;19.07;;;0.70;99.90;;;;;;5012101;28;20430;-54
2022/12/11 09:05:17;;;;;;;47.10;19.50;;;0.80;99.90;;;;;;5012400;28;20479;-55
2022/12/11 09:07:43;;;;;;;44.37;19.13;;;0.70;99.90;;;;;;5011989;28;20022;-53
2022/12/11 09:10:09;;;;;;;46.63;18.53;;;0.80;99.90;;;;;;5011985;28;20104;-54
2022/12/11 09:12:36;;;;;;;48.43;19.40;;;0.80;99.90;;;;;;5012306;28;20034;-54
2022/12/11 09:15:02;;;;;;;42.37;18.07;;;0.80;99.90;;;;;;5012169;28;20553;-54
2022/12/11 09:17:28;;;;;;;43.73;18.03;;;0.80;99.90;;;;;;5011907;28;20116;-53
2022/12/11 09:19:54;;;;;;;49.30;19.90;;;0.80;99.90;;;;;;5011879;28;20241;-54
2022/12/11 09:22:19;;;;;;;44.53;18.67;;;0.90;99.90;;;;;;5011915;28;20061;-55
2022/12/11 09:24:45;;;;;;;42.80;17.43;;;0.90;99.90;;;;;;5011770;28;20026;-53
2022/12/11 09:27:11;;;;;;;41.00;18.47;;;0.90;99.90;;;;;;5011725;28;20164;-50
2022/12/11 09:29:37;;;;;;;45.13;18.33;;;0.90;99.90;;;;;;5011587;28;20117;-49
2022/12/11 09:32:04;;;;;;;42.37;18.00;;;0.90;99.90;;;;;;5011730;28;20052;-51
2022/12/11 09:34:29;;;;;;;41.40;18.33;;;1.00;99.90;;;;;;5011688;28;20030;-49
2022/12/11 09:36:55;;;;;;;42.30;17.47;;;1.00;99.90;;;;;;5011513;28;20037;-50
2022/12/11 09:39:21;;;;;;;44.17;18.30;;;0.90;99.90;;;;;;5011451;28;20033;-49
2022/12/11 09:42:03;;;;;;;41.73;18.33;;;0.90;99.90;;;;;;5011624;28;20030;-53
2022/12/11 09:44:34;;;;;;;37.70;16.90;;;1.00;99.90;;;;;;5011517;28;20038;-50
2022/12/11 09:47:00;;;;;;;33.87;15.47;;;1.10;99.90;;;;;;5011214;28;20224;-53
2022/12/11 09:49:42;;;;;;;36.27;16.07;;;1.00;99.90;;;;;;5011237;28;20391;-49
2022/12/11 09:52:51;;;;;;;33.53;15.10;;;1.00;99.90;;;;;;5011573;28;20030;-53
2022/12/11 09:55:23;;;;;;;31.98;14.30;;;1.00;99.90;;;;;;5016952;28;20494;-53
2022/12/11 09:57:48;;;;;;;38.37;16.57;;;1.00;99.90;;;;;;5011224;28;20614;-55
2022/12/11 10:00:26;;;;;;;35.97;16.23;;;1.00;99.90;;;;;;5011036;28;20112;-54
2022/12/11 10:03:33;;;;;;;37.10;15.97;;;1.00;99.90;;;;;;5011053;28;20034;-53
2022/12/11 10:06:19;;;;;;;37.00;15.23;;;1.10;99.90;;;;;;5011780;28;20033;-54
2022/12/11 10:09:07;;;;;;;35.67;15.47;;;1.10;99.90;;;;;;5011139;28;20041;-53
2022/12/11 10:11:54;;;;;;;35.00;15.43;;;1.10;99.90;;;;;;5011372;28;20104;-55
2022/12/11 10:15:04;;;;;;;33.30;15.47;;;1.10;99.90;;;;;;5011027;28;20030;-55
2022/12/11 10:17:32;;;;;;;36.67;14.90;;;1.10;99.90;;;;;;5028085;28;20033;-52
2022/12/11 10:20:16;;;;;;;40.00;16.13;;;1.00;99.90;;;;;;5014116;28;20038;-55
2022/12/11 10:22:43;;;;;;;33.80;14.47;;;1.10;99.90;;;;;;5010980;28;20021;-55
2022/12/11 10:25:24;;;;;;;35.77;14.77;;;1.10;99.90;;;;;;5010893;28;20053;-53
2022/12/11 10:27:50;;;;;;;33.50;14.60;;;1.10;99.90;;;;;;5010871;28;20045;-54
2022/12/11 10:30:22;;;;;;;31.43;14.70;;;1.10;99.90;;;;;;5010793;28;20030;-53
2022/12/11 10:33:07;;;;;;;35.27;15.47;;;1.10;99.90;;;;;;5010954;28;20034;-54
2022/12/11 10:35:59;;;;;;;38.20;15.23;;;1.20;99.90;;;;;;5010864;28;20458;-55
2022/12/11 10:38:37;;;;;;;35.67;14.90;;;1.20;99.90;;;;;;5011260;28;20128;-54
2022/12/11 10:41:16;;;;;;;36.97;15.83;;;1.20;99.90;;;;;;5010980;28;20117;-54
2022/12/11 10:43:45;;;;;;;33.20;15.07;;;1.20;99.90;;;;;;5010634;28;20034;-52
2022/12/11 10:46:18;;;;;;;39.13;17.10;;;1.20;99.90;;;;;;5010979;28;20030;-56
2022/12/11 10:48:52;;;;;;;39.40;17.33;;;1.20;99.90;;;;;;5010478;28;20114;-55
2022/12/11 10:51:19;;;;;;;56.43;24.33;;;1.20;99.90;;;;;;5011041;28;20386;-55
2022/12/11 10:53:57;;;;;;;35.33;16.77;;;1.20;99.90;;;;;;5009430;28;20057;-53
2022/12/11 10:56:27;;;;;;;40.47;17.43;;;1.30;99.90;;;;;;5010449;28;20034;-55
2022/12/11 10:58:55;;;;;;;36.70;17.33;;;1.30;99.90;;;;;;5010411;28;20498;-54
2022/12/11 11:01:23;;;;;;;36.77;17.03;;;1.40;99.90;;;;;;5010783;28;20030;-55
2022/12/11 11:04:14;;;;;;;35.00;16.70;;;1.40;99.90;;;;;;5010270;28;20048;-52
2022/12/11 11:06:40;;;;;;;34.27;16.57;;;1.40;99.90;;;;;;5010826;28;20465;-55
2022/12/11 11:09:30;;;;;;;38.00;17.20;;;1.40;99.90;;;;;;5014212;28;20286;-51
2022/12/11 11:11:56;;;;;;;37.97;17.57;;;1.40;99.90;;;;;;5014289;28;20038;-56
2022/12/11 11:14:22;;;;;;;41.13;16.87;;;1.40;99.90;;;;;;5014261;28;20037;-54
2022/12/11 11:16:51;;;;;;;39.33;17.03;;;1.50;99.90;;;;;;5012926;28;20437;-54
2022/12/11 11:19:34;;;;;;;36.03;15.80;;;1.50;99.90;;;;;;5014425;28;20029;-53
2022/12/11 11:22:11;;;;;;;34.47;16.50;;;1.50;99.90;;;;;;5014113;28;20479;-53
2022/12/11 11:24:41;;;;;;;34.40;15.70;;;1.40;99.90;;;;;;5014118;28;20096;-54
2022/12/11 11:27:12;;;;;;;31.98;15.18;;;1.40;99.90;;;;;;5013851;28;20398;-53
2022/12/11 11:29:38;;;;;;;36.47;16.93;;;1.40;99.90;;;;;;5013635;28;20040;-53
2022/12/11 11:32:36;;;;;;;30.67;15.43;;;1.30;99.90;;;;;;5014205;28;20041;-53
2022/12/11 11:35:10;;;;;;;37.47;17.07;;;1.30;99.90;;;;;;5017230;28;20050;-54
2022/12/11 11:37:43;;;;;;;34.50;16.53;;;1.30;99.90;;;;;;5013739;28;20036;-52
2022/12/11 11:40:32;;;;;;;35.40;16.37;;;1.40;99.90;;;;;;5013574;28;20037;-51
2022/12/11 11:43:02;;;;;;;32.13;16.20;;;1.40;99.90;;;;;;5013993;28;20030;-54
2022/12/11 11:45:55;;;;;;;36.50;16.67;;;1.40;99.90;;;;;;5013680;28;20033;-56
2022/12/11 11:48:32;;;;;;;34.87;16.90;;;1.40;99.90;;;;;;5013048;28;20052;-54
2022/12/11 11:51:06;;;;;;;34.93;17.20;;;1.40;99.90;;;;;;5013786;28;20084;-55
2022/12/11 11:53:38;;;;;;;34.70;16.10;;;1.50;99.90;;;;;;5013571;28;20037;-54
2022/12/11 11:56:36;;;;;;;36.07;16.87;;;1.40;99.90;;;;;;5013741;28;20033;-55
2022/12/11 11:59:48;;;;;;;35.30;16.30;;;1.40;99.90;;;;;;5016661;28;20034;-54
2022/12/11 12:02:16;;;;;;;35.20;16.77;;;1.40;99.90;;;;;;5030883;28;20033;-55
2022/12/11 12:04:44;;;;;;;33.67;14.93;;;1.40;99.90;;;;;;5015652;28;20060;-54
2022/12/11 12:07:38;;;;;;;35.13;16.07;;;1.40;99.90;;;;;;5013046;28;20046;-55
2022/12/11 12:10:06;;;;;;;29.17;16.30;;;1.50;99.90;;;;;;5013300;28;20087;-53
2022/12/11 12:12:57;;;;;;;35.67;16.93;;;1.40;99.90;;;;;;5013209;28;20034;-54
2022/12/11 12:15:38;;;;;;;34.60;15.80;;;1.50;99.90;;;;;;5013222;28;20481;-54
2022/12/11 12:18:37;;;;;;;30.50;15.33;;;1.40;99.90;;;;;;5012265;28;20113;-53
2022/12/11 12:21:35;;;;;;;31.83;15.57;;;1.50;99.90;;;;;;5013139;28;20033;-54
2022/12/11 12:24:19;;;;;;;30.70;14.80;;;1.50;99.90;;;;;;5013246;28;20165;-55
2022/12/11 12:27:00;;;;;;;31.20;14.17;;;1.50;99.90;;;;;;5012953;28;20458;-54
2022/12/11 12:29:56;;;;;;;26.73;12.97;;;1.40;99.90;;;;;;5012772;28;20053;-52
2022/12/11 12:32:53;;;;;;;27.43;14.20;;;1.40;99.90;;;;;;5012871;28;20547;-53
2022/12/11 12:35:25;;;;;;;26.13;13.20;;;1.50;99.90;;;;;;5019538;28;20045;-53
2022/12/11 12:38:15;;;;;;;25.20;13.03;;;1.50;99.90;;;;;;5012730;28;20033;-54
2022/12/11 12:41:14;;;;;;;29.63;12.53;;;1.50;99.90;;;;;;5012519;28;20109;-54
2022/12/11 12:43:53;;;;;;;29.38;12.77;;;1.60;99.90;;;;;;5012708;28;20026;-51
2022/12/11 12:46:52;;;;;;;25.02;13.02;;;1.60;99.90;;;;;;5012603;28;20445;-54
2022/12/11 12:49:38;;;;;;;26.30;12.13;;;1.70;99.90;;;;;;5012497;28;20483;-53
2022/12/11 12:52:09;;;;;;;27.97;12.97;;;1.70;99.90;;;;;;5012576;28;20038;-52
2022/12/11 12:54:35;;;;;;;28.47;12.87;;;1.70;99.90;;;;;;5012460;28;20064;-55
2022/12/11 12:57:03;;;;;;;27.60;12.87;;;1.80;99.90;;;;;;5012125;28;20018;-53
2022/12/11 12:59:28;;;;;;;28.33;13.60;;;1.80;99.90;;;;;;5012405;28;20045;-54
2022/12/11 13:01:58;;;;;;;26.70;12.90;;;1.80;99.90;;;;;;5012256;28;20025;-53
2022/12/11 13:04:41;;;;;;;29.90;14.43;;;1.80;99.90;;;;;;5024711;23;20049;-51